createdAt,value
2023-05-21T00:00:31.018Z,13.05
2023-05-21T00:02:59.414Z,13.07
2023-05-21T00:05:26.431Z,13.11
2023-05-21T00:07:55.050Z,13.13
2023-05-21T00:10:22.096Z,13.16
2023-05-21T00:12:52.022Z,13.18
2023-05-21T00:15:18.883Z,13.21
2023-05-21T00:17:46.681Z,13.27
2023-05-21T00:20:13.848Z,13.32
2023-05-21T00:22:42.418Z,13.38
2023-05-21T00:25:10.906Z,13.42
2023-05-21T00:27:38.171Z,13.45
2023-05-21T00:30:06.237Z,13.49
2023-05-21T00:32:33.756Z,13.49
2023-05-21T00:35:00.460Z,13.53
2023-05-21T00:37:29.928Z,13.51
2023-05-21T00:39:58.171Z,13.50
2023-05-21T00:42:27.526Z,13.52
2023-05-21T00:44:54.377Z,13.54
2023-05-21T00:47:21.838Z,13.54
2023-05-21T00:49:52.233Z,13.54
2023-05-21T00:52:20.529Z,13.54
2023-05-21T00:54:49.451Z,13.58
2023-05-21T00:57:20.990Z,13.57
2023-05-21T00:59:52.156Z,13.62
2023-05-21T01:02:22.725Z,13.61
2023-05-21T01:04:50.311Z,13.64
2023-05-21T01:07:21.930Z,13.64
2023-05-21T01:09:49.161Z,13.59
2023-05-21T01:12:16.757Z,13.56
2023-05-21T01:14:44.132Z,13.51
2023-05-21T01:17:11.702Z,13.52
2023-05-21T01:19:38.636Z,13.54
2023-05-21T01:22:09.152Z,13.52
2023-05-21T01:24:37.196Z,13.47
2023-05-21T01:27:08.617Z,13.44
2023-05-21T01:29:35.385Z,13.41
2023-05-21T01:32:21.346Z,13.40
2023-05-21T01:35:02.760Z,13.37
2023-05-21T01:37:44.826Z,13.36
2023-05-21T01:40:19.378Z,13.32
2023-05-21T01:42:48.382Z,13.29
2023-05-21T01:45:16.706Z,13.32
2023-05-21T01:47:48.433Z,13.30
2023-05-21T01:50:16.110Z,13.29
2023-05-21T01:52:54.904Z,13.25
2023-05-21T01:55:33.260Z,13.25
2023-05-21T01:58:02.461Z,13.23
2023-05-21T02:00:29.701Z,13.23
2023-05-21T02:02:56.831Z,13.20
2023-05-21T02:05:23.797Z,13.17
2023-05-21T02:07:52.249Z,13.19
2023-05-21T02:10:19.505Z,13.16
2023-05-21T02:12:46.685Z,13.18
2023-05-21T02:15:18.244Z,13.21
2023-05-21T02:17:46.722Z,13.23
2023-05-21T02:20:14.044Z,13.24
2023-05-21T02:22:42.674Z,13.24
2023-05-21T02:25:11.047Z,13.23
2023-05-21T02:27:39.081Z,13.22
2023-05-21T02:30:08.226Z,13.18
2023-05-21T02:32:35.461Z,13.14
2023-05-21T02:35:04.156Z,13.11
2023-05-21T02:37:34.743Z,13.08
2023-05-21T02:40:04.566Z,13.07
2023-05-21T02:42:31.137Z,13.02
2023-05-21T02:44:57.998Z,13.00
2023-05-21T02:47:25.644Z,12.97
2023-05-21T02:49:53.333Z,12.94
2023-05-21T02:52:22.281Z,12.91
2023-05-21T02:54:49.116Z,12.90
2023-05-21T02:57:15.965Z,12.92
2023-05-21T02:59:42.720Z,12.95
2023-05-21T03:02:09.617Z,12.94
2023-05-21T03:04:39.332Z,12.90
2023-05-21T03:07:06.302Z,12.84
2023-05-21T03:09:33.107Z,12.77
2023-05-21T03:12:01.092Z,12.73
2023-05-21T03:14:29.108Z,12.71
2023-05-21T03:16:55.955Z,12.70
2023-05-21T03:19:22.844Z,12.69
2023-05-21T03:21:50.736Z,12.66
2023-05-21T03:24:17.478Z,12.67
2023-05-21T03:26:44.197Z,12.68
2023-05-21T03:29:10.962Z,12.67
2023-05-21T03:31:37.791Z,12.67
2023-05-21T03:34:04.570Z,12.67
2023-05-21T03:36:31.634Z,12.70
2023-05-21T03:38:58.367Z,12.72
2023-05-21T03:41:25.155Z,12.71
2023-05-21T03:43:51.914Z,12.72
2023-05-21T03:46:18.698Z,12.77
2023-05-21T03:48:45.978Z,12.79
2023-05-21T03:51:13.345Z,12.79
2023-05-21T03:53:40.105Z,12.77
2023-05-21T03:56:07.069Z,12.78
2023-05-21T03:58:33.817Z,12.82
2023-05-21T04:01:02.914Z,12.85
2023-05-21T04:03:29.941Z,12.86
2023-05-21T04:05:57.041Z,12.92
2023-05-21T04:08:23.764Z,12.95
2023-05-21T04:10:50.528Z,12.99
2023-05-21T04:13:17.377Z,13.06
2023-05-21T04:15:44.891Z,13.15
2023-05-21T04:18:13.685Z,13.17
2023-05-21T04:20:40.449Z,13.19
2023-05-21T04:23:08.012Z,13.23
2023-05-21T04:25:35.112Z,13.27
2023-05-21T04:28:02.327Z,13.31
2023-05-21T04:30:29.037Z,13.37
2023-05-21T04:32:55.768Z,13.42
2023-05-21T04:35:23.526Z,13.51
2023-05-21T04:37:50.593Z,13.58
2023-05-21T04:40:18.594Z,13.69
2023-05-21T04:42:46.815Z,13.77
2023-05-21T04:45:13.991Z,13.90
2023-05-21T04:47:40.832Z,13.98
2023-05-21T04:50:08.265Z,14.07
2023-05-21T04:52:35.067Z,14.22
2023-05-21T04:55:01.860Z,14.34
2023-05-21T04:57:29.643Z,14.38
2023-05-21T04:59:58.045Z,14.47
2023-05-21T05:02:24.912Z,14.53
2023-05-21T05:04:51.693Z,14.69
2023-05-21T05:07:18.449Z,14.89
2023-05-21T05:09:45.390Z,15.11
2023-05-21T05:12:12.354Z,15.28
2023-05-21T05:14:39.104Z,15.39
2023-05-21T05:17:08.978Z,15.57
2023-05-21T05:19:35.864Z,15.89
2023-05-21T05:22:04.734Z,16.69
2023-05-21T05:24:31.437Z,17.72
2023-05-21T05:26:58.197Z,18.76
2023-05-21T05:29:25.321Z,19.46
2023-05-21T05:31:52.486Z,19.69
2023-05-21T05:34:20.406Z,19.47
2023-05-21T05:36:50.743Z,19.00
2023-05-21T05:39:17.536Z,18.52
2023-05-21T05:41:45.731Z,18.04
2023-05-21T05:44:12.461Z,17.72
2023-05-21T05:46:39.259Z,17.47
2023-05-21T05:49:07.097Z,17.26
2023-05-21T05:51:33.882Z,17.06
2023-05-21T05:54:01.047Z,16.89
2023-05-21T05:56:28.943Z,16.75
2023-05-21T05:58:58.036Z,17.04
2023-05-21T06:01:24.921Z,18.08
2023-05-21T06:03:52.126Z,19.46
2023-05-21T06:06:19.272Z,21.02
2023-05-21T06:08:46.484Z,22.41
2023-05-21T06:11:13.421Z,23.18
2023-05-21T06:13:40.362Z,23.73
2023-05-21T06:16:10.131Z,24.65
2023-05-21T06:18:37.641Z,25.57
2023-05-21T06:21:04.761Z,26.59
2023-05-21T06:23:32.849Z,28.09
2023-05-21T06:26:01.578Z,29.39
2023-05-21T06:28:28.302Z,30.59
2023-05-21T06:30:55.066Z,31.75
2023-05-21T06:33:21.913Z,32.60
2023-05-21T06:35:48.724Z,33.62
2023-05-21T06:38:15.577Z,34.02
2023-05-21T06:40:42.841Z,33.78
2023-05-21T06:43:09.555Z,33.86
2023-05-21T06:45:36.679Z,33.71
2023-05-21T06:48:05.787Z,33.40
2023-05-21T06:50:33.044Z,33.77
2023-05-21T06:52:59.807Z,34.09
2023-05-21T06:55:26.586Z,34.64
2023-05-21T06:57:53.683Z,35.14
2023-05-21T07:00:20.823Z,35.13
2023-05-21T07:02:48.289Z,35.36
2023-05-21T07:05:15.078Z,35.89
2023-05-21T07:07:41.802Z,36.51
2023-05-21T07:10:09.293Z,36.03
2023-05-21T07:12:36.568Z,35.75
2023-05-21T07:15:03.408Z,35.76
2023-05-21T07:17:30.218Z,36.60
2023-05-21T07:19:57.140Z,37.34
2023-05-21T07:22:25.551Z,38.30
2023-05-21T07:24:54.096Z,38.70
2023-05-21T07:27:25.923Z,37.84
2023-05-21T07:29:53.142Z,37.52
2023-05-21T07:32:19.924Z,37.44
2023-05-21T07:34:47.318Z,38.28
2023-05-21T07:37:14.252Z,38.69
2023-05-21T07:39:42.139Z,39.04
2023-05-21T07:42:08.941Z,38.82
2023-05-21T07:44:35.857Z,38.26
2023-05-21T07:47:03.254Z,37.88
2023-05-21T07:49:30.009Z,37.24
2023-05-21T07:51:56.946Z,36.89
2023-05-21T07:54:23.958Z,37.31
2023-05-21T07:56:51.338Z,38.06
2023-05-21T07:59:18.101Z,38.74
2023-05-21T08:01:45.368Z,39.02
2023-05-21T08:04:12.769Z,38.37
2023-05-21T08:06:39.624Z,38.08
2023-05-21T08:09:06.850Z,37.15
2023-05-21T08:11:33.760Z,36.55
2023-05-21T08:14:02.031Z,35.89
2023-05-21T08:16:28.889Z,35.44
2023-05-21T08:18:55.790Z,36.32
2023-05-21T08:21:23.655Z,36.88
2023-05-21T08:23:52.997Z,37.09
2023-05-21T08:26:19.797Z,36.85
2023-05-21T08:28:46.499Z,36.01
2023-05-21T08:31:13.310Z,35.37
2023-05-21T08:33:40.213Z,35.19
2023-05-21T08:36:08.336Z,35.22
2023-05-21T08:38:35.302Z,34.66
2023-05-21T08:41:03.505Z,34.11
2023-05-21T08:43:30.298Z,33.69
2023-05-21T08:46:03.727Z,33.55
2023-05-21T08:48:31.464Z,34.19
2023-05-21T08:51:00.315Z,34.75
2023-05-21T08:53:30.054Z,35.18
2023-05-21T08:55:57.630Z,35.13
2023-05-21T08:58:24.454Z,34.79
2023-05-21T09:00:51.530Z,34.83
2023-05-21T09:03:18.482Z,34.57
2023-05-21T09:05:48.626Z,33.74
2023-05-21T09:08:24.585Z,32.65
2023-05-21T09:10:52.743Z,31.50
2023-05-21T09:13:20.680Z,30.52
2023-05-21T09:15:48.966Z,29.37
2023-05-21T09:18:16.069Z,28.29
2023-05-21T09:20:44.181Z,27.47
2023-05-21T09:23:16.601Z,26.81
2023-05-21T09:25:48.430Z,26.50
2023-05-21T09:28:18.332Z,26.32
2023-05-21T09:30:46.906Z,25.72
2023-05-21T09:33:29.847Z,24.92
2023-05-21T09:35:56.965Z,24.51
2023-05-21T09:38:24.076Z,24.39
2023-05-21T09:40:56.355Z,24.30
2023-05-21T09:43:23.188Z,24.09
2023-05-21T09:45:55.462Z,23.67
2023-05-21T09:48:39.655Z,23.26
2023-05-21T09:51:14.048Z,23.05
2023-05-21T09:53:51.078Z,22.92
2023-05-21T09:56:22.930Z,22.80
2023-05-21T09:58:54.860Z,22.87
2023-05-21T10:01:23.502Z,22.80
2023-05-21T10:03:59.580Z,22.66
2023-05-21T10:06:32.380Z,22.28
2023-05-21T10:09:03.959Z,22.02
2023-05-21T10:11:35.520Z,21.79
2023-05-21T10:14:07.674Z,21.77
2023-05-21T10:16:36.399Z,21.76
2023-05-21T10:19:11.118Z,21.78
2023-05-21T10:21:40.335Z,21.72
2023-05-21T10:24:09.435Z,21.70
2023-05-21T10:26:37.760Z,21.71
2023-05-21T10:29:04.905Z,21.66
2023-05-21T10:31:33.499Z,21.60
2023-05-21T10:34:00.904Z,21.56
2023-05-21T10:36:31.880Z,21.59
2023-05-21T10:39:02.567Z,21.62
2023-05-21T10:41:41.404Z,21.68
2023-05-21T10:44:18.287Z,21.64
2023-05-21T10:47:26.784Z,21.64
2023-05-21T10:50:31.730Z,21.68
2023-05-21T10:52:58.627Z,21.64
2023-05-21T10:55:48.167Z,21.63
2023-05-21T10:58:21.303Z,21.54
2023-05-21T11:00:48.734Z,21.43
2023-05-21T11:03:17.440Z,21.41
2023-05-21T11:05:53.426Z,21.48
2023-05-21T11:08:24.312Z,21.54
2023-05-21T11:10:55.886Z,21.65
2023-05-21T11:13:23.725Z,21.72
2023-05-21T11:15:59.830Z,21.73
2023-05-21T11:18:35.337Z,21.74
2023-05-21T11:21:06.464Z,21.70
2023-05-21T11:23:52.090Z,21.59
2023-05-21T11:26:23.701Z,21.52
2023-05-21T11:29:05.424Z,21.51
2023-05-21T11:31:40.158Z,21.57
2023-05-21T11:34:19.822Z,21.60
2023-05-21T11:36:48.210Z,21.68
2023-05-21T11:39:22.353Z,21.67
2023-05-21T11:42:01.744Z,21.60
2023-05-21T11:44:47.965Z,21.61
2023-05-21T11:47:20.308Z,21.67
2023-05-21T11:49:47.256Z,21.61
2023-05-21T11:52:14.883Z,21.57
2023-05-21T11:54:48.721Z,21.56
2023-05-21T11:57:19.634Z,21.56
2023-05-21T11:59:47.651Z,21.51
2023-05-21T12:02:18.752Z,21.49
2023-05-21T12:04:49.857Z,21.46
2023-05-21T12:07:24.353Z,21.44
2023-05-21T12:09:51.920Z,21.52
2023-05-21T12:12:23.193Z,21.68
2023-05-21T12:14:51.458Z,21.83
2023-05-21T12:17:20.668Z,21.91
2023-05-21T12:19:49.621Z,21.95
2023-05-21T12:22:16.901Z,21.91
2023-05-21T12:24:46.102Z,21.84
2023-05-21T12:27:13.726Z,21.76
2023-05-21T12:29:42.777Z,21.73
2023-05-21T12:32:16.328Z,21.62
2023-05-21T12:34:54.897Z,21.68
2023-05-21T12:37:26.612Z,21.81
2023-05-21T12:39:56.628Z,21.91
2023-05-21T12:42:31.041Z,21.96
2023-05-21T12:44:58.519Z,22.01
2023-05-21T12:47:27.479Z,22.07
2023-05-21T12:49:58.245Z,22.16
2023-05-21T12:52:31.046Z,22.21
2023-05-21T12:54:58.707Z,22.21
2023-05-21T12:57:39.293Z,22.24
2023-05-21T13:00:08.248Z,22.32
2023-05-21T13:02:38.679Z,22.41
2023-05-21T13:05:07.920Z,22.48
2023-05-21T13:07:39.571Z,22.50
2023-05-21T13:10:07.365Z,22.44
2023-05-21T13:12:35.088Z,22.38
2023-05-21T13:15:04.261Z,22.35
2023-05-21T13:17:31.209Z,22.27
2023-05-21T13:20:15.243Z,22.17
2023-05-21T13:22:47.472Z,22.01
2023-05-21T13:25:29.201Z,21.88
2023-05-21T13:27:56.297Z,21.90
2023-05-21T13:30:23.377Z,21.86
2023-05-21T13:32:53.267Z,21.89
2023-05-21T13:35:20.650Z,22.04
2023-05-21T13:37:48.014Z,22.25
2023-05-21T13:40:16.100Z,22.44
2023-05-21T13:42:48.545Z,22.43
2023-05-21T13:45:18.182Z,22.40
2023-05-21T13:47:46.451Z,22.42
2023-05-21T13:50:13.470Z,22.44
2023-05-21T13:52:40.727Z,22.48
2023-05-21T13:55:11.320Z,22.46
2023-05-21T13:57:38.172Z,22.39
2023-05-21T14:00:06.093Z,22.38
2023-05-21T14:02:33.001Z,22.40
2023-05-21T14:05:00.044Z,22.50
2023-05-21T14:07:27.117Z,22.45
2023-05-21T14:09:53.855Z,22.38
2023-05-21T14:12:21.820Z,22.29
2023-05-21T14:14:50.046Z,22.28
2023-05-21T14:17:17.099Z,22.17
2023-05-21T14:19:43.941Z,22.23
2023-05-21T14:22:10.825Z,22.31
2023-05-21T14:24:37.646Z,22.37
2023-05-21T14:27:04.589Z,22.29
2023-05-21T14:29:31.398Z,22.22
2023-05-21T14:31:58.182Z,22.05
2023-05-21T14:34:24.989Z,21.91
2023-05-21T14:36:53.787Z,21.81
2023-05-21T14:39:21.291Z,21.67
2023-05-21T14:41:48.138Z,21.63
2023-05-21T14:44:14.879Z,21.59
2023-05-21T14:46:41.977Z,21.51
2023-05-21T14:49:09.020Z,21.36
2023-05-21T14:51:35.834Z,21.28
2023-05-21T14:54:02.608Z,21.24
2023-05-21T14:56:29.356Z,21.33
2023-05-21T14:58:56.496Z,21.39
2023-05-21T15:01:23.763Z,21.37
2023-05-21T15:03:51.887Z,21.34
2023-05-21T15:06:18.919Z,21.37
2023-05-21T15:08:45.796Z,21.40
2023-05-21T15:11:12.499Z,21.39
2023-05-21T15:13:39.794Z,21.28
2023-05-21T15:16:06.738Z,21.28
2023-05-21T15:18:34.064Z,21.23
2023-05-21T15:21:01.026Z,21.22
2023-05-21T15:23:27.865Z,21.24
2023-05-21T15:25:54.679Z,21.19
2023-05-21T15:28:23.145Z,21.07
2023-05-21T15:30:51.456Z,20.92
2023-05-21T15:33:18.280Z,20.90
2023-05-21T15:35:45.449Z,20.88
2023-05-21T15:38:12.585Z,20.92
2023-05-21T15:40:41.492Z,21.06
2023-05-21T15:43:09.305Z,21.13
2023-05-21T15:45:36.990Z,21.15
2023-05-21T15:48:06.194Z,21.21
2023-05-21T15:50:35.602Z,21.19
2023-05-21T15:53:03.363Z,21.07
2023-05-21T15:55:33.609Z,21.04
2023-05-21T15:58:02.444Z,21.00
2023-05-21T16:00:30.493Z,21.01
2023-05-21T16:02:57.311Z,21.04
2023-05-21T16:05:24.498Z,21.02
2023-05-21T16:07:51.587Z,21.04
2023-05-21T16:10:18.553Z,21.14
2023-05-21T16:12:45.411Z,21.10
2023-05-21T16:15:12.275Z,21.05
2023-05-21T16:17:39.091Z,21.02
2023-05-21T16:20:06.843Z,21.01
2023-05-21T16:22:34.824Z,20.93
2023-05-21T16:25:01.576Z,20.91
2023-05-21T16:27:28.937Z,20.93
2023-05-21T16:29:56.290Z,20.91
2023-05-21T16:32:23.457Z,20.79
2023-05-21T16:34:50.479Z,20.67
2023-05-21T16:37:17.186Z,20.58
2023-05-21T16:39:43.941Z,20.48
2023-05-21T16:42:10.731Z,20.37
2023-05-21T16:44:38.171Z,20.39
2023-05-21T16:47:05.466Z,20.37
2023-05-21T16:49:32.276Z,20.26
2023-05-21T16:51:59.074Z,20.24
2023-05-21T16:54:27.052Z,20.20
2023-05-21T16:56:55.088Z,20.09
2023-05-21T16:59:21.827Z,19.99
2023-05-21T17:01:49.084Z,19.92
2023-05-21T17:04:15.868Z,19.89
2023-05-21T17:06:42.968Z,19.93
2023-05-21T17:09:10.866Z,19.90
2023-05-21T17:11:37.712Z,19.82
2023-05-21T17:14:04.545Z,19.74
2023-05-21T17:16:31.403Z,19.67
2023-05-21T17:18:58.179Z,19.63
2023-05-21T17:21:26.809Z,19.59
2023-05-21T17:23:53.735Z,19.56
2023-05-21T17:26:21.900Z,19.54
2023-05-21T17:28:48.656Z,19.49
2023-05-21T17:31:15.483Z,19.47
2023-05-21T17:33:42.291Z,19.43
2023-05-21T17:36:09.422Z,19.39
2023-05-21T17:38:36.415Z,19.35
2023-05-21T17:41:04.652Z,19.26
2023-05-21T17:43:32.533Z,19.14
2023-05-21T17:45:59.571Z,19.06
2023-05-21T17:48:26.640Z,19.00
2023-05-21T17:50:53.509Z,18.92
2023-05-21T17:53:20.345Z,18.85
2023-05-21T17:55:47.832Z,18.82
2023-05-21T17:58:14.793Z,18.78
2023-05-21T18:00:41.684Z,18.70
2023-05-21T18:03:08.617Z,18.63
2023-05-21T18:05:35.872Z,18.56
2023-05-21T18:08:03.047Z,18.48
2023-05-21T18:10:29.874Z,18.44
2023-05-21T18:12:56.708Z,18.39
2023-05-21T18:15:23.797Z,18.33
2023-05-21T18:17:50.615Z,18.28
2023-05-21T18:20:17.502Z,18.24
2023-05-21T18:22:47.164Z,18.18
2023-05-21T18:25:14.015Z,18.11
2023-05-21T18:27:40.953Z,18.08
2023-05-21T18:30:08.691Z,18.00
2023-05-21T18:32:39.143Z,17.93
2023-05-21T18:35:13.795Z,17.86
2023-05-21T18:37:44.357Z,17.78
2023-05-21T18:40:12.293Z,17.69
2023-05-21T18:42:39.248Z,17.62
2023-05-21T18:45:10.430Z,17.58
2023-05-21T18:47:39.291Z,17.53
2023-05-21T18:50:14.308Z,17.45
2023-05-21T18:52:41.693Z,17.35
2023-05-21T18:55:08.982Z,17.29
2023-05-21T18:57:35.800Z,17.22
2023-05-21T19:00:02.541Z,17.18
2023-05-21T19:02:29.866Z,17.15
2023-05-21T19:04:56.718Z,17.11
2023-05-21T19:07:23.488Z,17.04
2023-05-21T19:09:50.432Z,17.01
2023-05-21T19:12:17.276Z,16.95
2023-05-21T19:14:45.136Z,16.89
2023-05-21T19:17:13.707Z,16.82
2023-05-21T19:19:40.583Z,16.77
2023-05-21T19:22:07.389Z,16.75
2023-05-21T19:24:34.491Z,16.69
2023-05-21T19:27:01.351Z,16.63
2023-05-21T19:29:29.254Z,16.56
2023-05-21T19:31:57.495Z,16.53
2023-05-21T19:34:24.385Z,16.52
2023-05-21T19:36:54.238Z,16.50
2023-05-21T19:39:21.695Z,16.41
2023-05-21T19:41:48.530Z,16.34
2023-05-21T19:44:15.427Z,16.31
2023-05-21T19:46:50.057Z,16.30
2023-05-21T19:49:16.946Z,16.26
2023-05-21T19:51:43.983Z,16.21
2023-05-21T19:54:10.997Z,16.14
2023-05-21T19:56:37.902Z,16.09
2023-05-21T19:59:04.684Z,16.05
2023-05-21T20:01:35.541Z,16.02
2023-05-21T20:04:02.374Z,15.95
2023-05-21T20:06:29.317Z,15.89
2023-05-21T20:08:56.124Z,15.84
2023-05-21T20:11:23.259Z,15.82
2023-05-21T20:13:50.767Z,15.77
2023-05-21T20:16:20.751Z,15.73
2023-05-21T20:18:48.596Z,15.66
2023-05-21T20:21:20.291Z,15.63
2023-05-21T20:23:47.576Z,15.59
2023-05-21T20:26:15.359Z,15.56
2023-05-21T20:28:45.298Z,15.55
2023-05-21T20:31:12.284Z,15.48
2023-05-21T20:33:41.052Z,15.42
2023-05-21T20:36:08.312Z,15.35
2023-05-21T20:38:37.241Z,15.29
2023-05-21T20:41:05.164Z,15.24
2023-05-21T20:43:31.936Z,15.18
2023-05-21T20:46:01.896Z,15.12
2023-05-21T20:48:29.994Z,15.08
2023-05-21T20:50:58.838Z,15.05
2023-05-21T20:53:26.107Z,14.97
2023-05-21T20:55:54.910Z,14.93
2023-05-21T20:58:24.113Z,14.95
2023-05-21T21:00:50.930Z,14.92
2023-05-21T21:03:21.979Z,14.86
2023-05-21T21:05:50.076Z,14.77
2023-05-21T21:08:16.862Z,14.71
2023-05-21T21:10:46.953Z,14.67
2023-05-21T21:13:14.750Z,14.65
2023-05-21T21:15:42.826Z,14.64
2023-05-21T21:18:12.409Z,14.65
2023-05-21T21:20:39.716Z,14.58
2023-05-21T21:23:06.693Z,14.53
2023-05-21T21:25:34.867Z,14.49
2023-05-21T21:28:01.660Z,14.46
2023-05-21T21:30:29.514Z,14.38
2023-05-21T21:32:56.869Z,14.33
2023-05-21T21:35:24.158Z,14.30
2023-05-21T21:37:51.028Z,14.25
2023-05-21T21:40:18.044Z,14.19
2023-05-21T21:42:44.810Z,14.16
2023-05-21T21:45:13.662Z,14.16
2023-05-21T21:47:40.488Z,14.15
2023-05-21T21:50:07.895Z,14.08
2023-05-21T21:52:34.586Z,14.01
2023-05-21T21:55:01.402Z,13.96
2023-05-21T21:57:29.614Z,13.96
2023-05-21T21:59:56.517Z,13.91
2023-05-21T22:02:23.374Z,13.92
2023-05-21T22:04:50.740Z,13.90
2023-05-21T22:07:18.324Z,13.82
2023-05-21T22:09:45.610Z,13.81
2023-05-21T22:12:13.264Z,13.78
2023-05-21T22:14:39.952Z,13.74
2023-05-21T22:17:08.466Z,13.71
2023-05-21T22:19:35.977Z,13.68
2023-05-21T22:22:04.430Z,13.66
2023-05-21T22:24:33.111Z,13.59
2023-05-21T22:27:01.837Z,13.56
2023-05-21T22:29:28.529Z,13.53
2023-05-21T22:31:55.384Z,13.50
2023-05-21T22:34:23.125Z,13.47
2023-05-21T22:36:50.234Z,13.43
2023-05-21T22:39:17.730Z,13.42
2023-05-21T22:41:45.810Z,13.40
2023-05-21T22:44:12.630Z,13.36
2023-05-21T22:46:42.199Z,13.31
2023-05-21T22:49:10.366Z,13.27
2023-05-21T22:51:37.637Z,13.25
2023-05-21T22:54:05.270Z,13.20
2023-05-21T22:56:31.992Z,13.14
2023-05-21T22:58:59.649Z,13.11
2023-05-21T23:01:26.472Z,13.07
2023-05-21T23:03:53.219Z,13.02
2023-05-21T23:06:19.972Z,12.98
2023-05-21T23:08:46.755Z,12.96
2023-05-21T23:11:13.589Z,12.92
2023-05-21T23:13:40.552Z,12.92
2023-05-21T23:16:10.298Z,12.88
2023-05-21T23:18:37.113Z,12.82
2023-05-21T23:21:09.131Z,12.81
2023-05-21T23:23:36.007Z,12.75
2023-05-21T23:26:04.391Z,12.72
2023-05-21T23:28:31.221Z,12.70
2023-05-21T23:30:57.974Z,12.72
2023-05-21T23:33:25.732Z,12.65
2023-05-21T23:35:52.561Z,12.62
2023-05-21T23:38:19.311Z,12.62
2023-05-21T23:40:46.063Z,12.61
2023-05-21T23:43:12.806Z,12.61
2023-05-21T23:45:41.394Z,12.57
2023-05-21T23:48:08.333Z,12.55
2023-05-21T23:50:35.287Z,12.50
2023-05-21T23:53:01.993Z,12.42
2023-05-21T23:55:29.239Z,12.38
2023-05-21T23:57:56.007Z,12.38
